sensor_id;sensor_type;location;lat;lon;timestamp;P1;durP1;ratioP1;P2;durP2;ratioP2
76495;SDS011;65329;52.544;4.662;2024-02-26T00:01:01;10.85;;;5.32;;
76495;SDS011;65329;52.544;4.662;2024-02-26T00:03:28;11.57;;;5.78;;
76495;SDS011;65329;52.544;4.662;2024-02-26T00:05:55;10.55;;;5.03;;
76495;SDS011;65329;52.544;4.662;2024-02-26T00:08:23;6.95;;;4.55;;
76495;SDS011;65329;52.544;4.662;2024-02-26T00:10:50;7.93;;;4.72;;
76495;SDS011;65329;52.544;4.662;2024-02-26T00:13:17;7.95;;;3.45;;
76495;SDS011;65329;52.544;4.662;2024-02-26T00:15:44;9.30;;;5.18;;
76495;SDS011;65329;52.544;4.662;2024-02-26T00:18:11;8.55;;;4.35;;
76495;SDS011;65329;52.544;4.662;2024-02-26T00:20:38;6.25;;;3.90;;
76495;SDS011;65329;52.544;4.662;2024-02-26T00:23:06;8.27;;;4.72;;
76495;SDS011;65329;52.544;4.662;2024-02-26T00:25:33;9.93;;;5.20;;
76495;SDS011;65329;52.544;4.662;2024-02-26T00:28:00;8.90;;;4.55;;
76495;SDS011;65329;52.544;4.662;2024-02-26T00:30:27;10.90;;;5.30;;
76495;SDS011;65329;52.544;4.662;2024-02-26T00:32:54;6.97;;;3.92;;
76495;SDS011;65329;52.544;4.662;2024-02-26T00:35:21;8.80;;;4.03;;
76495;SDS011;65329;52.544;4.662;2024-02-26T00:37:47;7.68;;;4.80;;
76495;SDS011;65329;52.544;4.662;2024-02-26T00:40:14;7.25;;;4.15;;
76495;SDS011;65329;52.544;4.662;2024-02-26T00:42:41;8.38;;;4.55;;
76495;SDS011;65329;52.544;4.662;2024-02-26T00:45:12;10.63;;;5.13;;
76495;SDS011;65329;52.544;4.662;2024-02-26T00:47:39;9.45;;;5.35;;
76495;SDS011;65329;52.544;4.662;2024-02-26T00:50:11;7.30;;;4.32;;
76495;SDS011;65329;52.544;4.662;2024-02-26T00:52:37;10.85;;;5.68;;
76495;SDS011;65329;52.544;4.662;2024-02-26T00:55:05;9.50;;;5.10;;
76495;SDS011;65329;52.544;4.662;2024-02-26T00:57:32;12.20;;;5.50;;
76495;SDS011;65329;52.544;4.662;2024-02-26T00:59:59;10.88;;;5.05;;
76495;SDS011;65329;52.544;4.662;2024-02-26T01:02:27;10.00;;;5.35;;
76495;SDS011;65329;52.544;4.662;2024-02-26T01:04:54;10.88;;;5.90;;
76495;SDS011;65329;52.544;4.662;2024-02-26T01:07:21;11.15;;;5.78;;
76495;SDS011;65329;52.544;4.662;2024-02-26T01:09:48;13.10;;;6.78;;
76495;SDS011;65329;52.544;4.662;2024-02-26T01:12:15;13.30;;;5.53;;
76495;SDS011;65329;52.544;4.662;2024-02-26T01:14:42;7.70;;;4.10;;
76495;SDS011;65329;52.544;4.662;2024-02-26T01:17:09;10.85;;;4.30;;
76495;SDS011;65329;52.544;4.662;2024-02-26T01:19:36;10.40;;;5.55;;
76495;SDS011;65329;52.544;4.662;2024-02-26T01:22:03;14.32;;;6.20;;
76495;SDS011;65329;52.544;4.662;2024-02-26T01:24:30;9.38;;;4.68;;
76495;SDS011;65329;52.544;4.662;2024-02-26T01:26:57;8.35;;;4.47;;
76495;SDS011;65329;52.544;4.662;2024-02-26T01:29:24;10.32;;;5.55;;
76495;SDS011;65329;52.544;4.662;2024-02-26T01:31:51;10.32;;;6.03;;
76495;SDS011;65329;52.544;4.662;2024-02-26T01:34:18;14.82;;;6.55;;
76495;SDS011;65329;52.544;4.662;2024-02-26T01:36:45;14.93;;;6.07;;
76495;SDS011;65329;52.544;4.662;2024-02-26T01:39:12;6.82;;;4.25;;
76495;SDS011;65329;52.544;4.662;2024-02-26T01:41:39;12.45;;;5.53;;
76495;SDS011;65329;52.544;4.662;2024-02-26T01:44:07;12.52;;;5.55;;
76495;SDS011;65329;52.544;4.662;2024-02-26T01:46:34;11.90;;;5.65;;
76495;SDS011;65329;52.544;4.662;2024-02-26T01:49:02;15.63;;;6.40;;
76495;SDS011;65329;52.544;4.662;2024-02-26T01:51:30;14.60;;;6.60;;
76495;SDS011;65329;52.544;4.662;2024-02-26T01:53:59;10.82;;;4.43;;
76495;SDS011;65329;52.544;4.662;2024-02-26T01:56:28;12.40;;;6.20;;
76495;SDS011;65329;52.544;4.662;2024-02-26T01:58:58;13.25;;;6.47;;
76495;SDS011;65329;52.544;4.662;2024-02-26T02:01:25;11.98;;;5.18;;
76495;SDS011;65329;52.544;4.662;2024-02-26T02:03:55;11.55;;;6.10;;
76495;SDS011;65329;52.544;4.662;2024-02-26T02:06:24;12.38;;;6.43;;
76495;SDS011;65329;52.544;4.662;2024-02-26T02:08:51;12.43;;;5.40;;
76495;SDS011;65329;52.544;4.662;2024-02-26T02:11:19;11.75;;;5.60;;
76495;SDS011;65329;52.544;4.662;2024-02-26T02:13:46;13.18;;;6.28;;
76495;SDS011;65329;52.544;4.662;2024-02-26T02:16:13;13.07;;;6.63;;
76495;SDS011;65329;52.544;4.662;2024-02-26T02:18:40;11.00;;;5.28;;
76495;SDS011;65329;52.544;4.662;2024-02-26T02:21:07;13.00;;;6.25;;
76495;SDS011;65329;52.544;4.662;2024-02-26T02:23:35;12.48;;;7.00;;
76495;SDS011;65329;52.544;4.662;2024-02-26T02:26:02;13.10;;;6.00;;
76495;SDS011;65329;52.544;4.662;2024-02-26T02:28:28;14.57;;;6.00;;
76495;SDS011;65329;52.544;4.662;2024-02-26T02:30:55;13.82;;;6.78;;
76495;SDS011;65329;52.544;4.662;2024-02-26T02:33:23;11.55;;;5.85;;
76495;SDS011;65329;52.544;4.662;2024-02-26T02:35:52;11.90;;;5.90;;
76495;SDS011;65329;52.544;4.662;2024-02-26T02:38:20;13.27;;;5.40;;
76495;SDS011;65329;52.544;4.662;2024-02-26T02:40:47;12.52;;;5.07;;
76495;SDS011;65329;52.544;4.662;2024-02-26T02:43:14;9.27;;;4.72;;
76495;SDS011;65329;52.544;4.662;2024-02-26T02:45:41;10.63;;;5.28;;
76495;SDS011;65329;52.544;4.662;2024-02-26T02:48:08;14.27;;;5.68;;
76495;SDS011;65329;52.544;4.662;2024-02-26T02:50:35;14.38;;;5.43;;
76495;SDS011;65329;52.544;4.662;2024-02-26T02:53:02;13.13;;;6.05;;
76495;SDS011;65329;52.544;4.662;2024-02-26T02:55:29;10.68;;;4.57;;
76495;SDS011;65329;52.544;4.662;2024-02-26T02:57:56;8.63;;;5.43;;
76495;SDS011;65329;52.544;4.662;2024-02-26T03:00:23;11.98;;;5.85;;
76495;SDS011;65329;52.544;4.662;2024-02-26T03:02:51;11.88;;;6.25;;
76495;SDS011;65329;52.544;4.662;2024-02-26T03:05:18;11.02;;;6.13;;
76495;SDS011;65329;52.544;4.662;2024-02-26T03:07:45;11.68;;;6.10;;
76495;SDS011;65329;52.544;4.662;2024-02-26T03:10:12;13.85;;;6.15;;
76495;SDS011;65329;52.544;4.662;2024-02-26T03:12:38;12.48;;;6.68;;
76495;SDS011;65329;52.544;4.662;2024-02-26T03:15:06;16.77;;;7.60;;
76495;SDS011;65329;52.544;4.662;2024-02-26T03:17:33;14.98;;;6.60;;
76495;SDS011;65329;52.544;4.662;2024-02-26T03:20:00;9.73;;;4.82;;
76495;SDS011;65329;52.544;4.662;2024-02-26T03:22:27;9.75;;;4.93;;
76495;SDS011;65329;52.544;4.662;2024-02-26T03:24:53;12.43;;;5.90;;
76495;SDS011;65329;52.544;4.662;2024-02-26T03:27:20;11.57;;;6.45;;
76495;SDS011;65329;52.544;4.662;2024-02-26T03:29:49;7.85;;;5.00;;
76495;SDS011;65329;52.544;4.662;2024-02-26T03:32:16;10.32;;;5.47;;
76495;SDS011;65329;52.544;4.662;2024-02-26T03:34:43;11.23;;;6.05;;
76495;SDS011;65329;52.544;4.662;2024-02-26T03:37:10;14.95;;;7.18;;
76495;SDS011;65329;52.544;4.662;2024-02-26T03:39:37;15.02;;;7.93;;
76495;SDS011;65329;52.544;4.662;2024-02-26T03:42:04;15.55;;;6.88;;
76495;SDS011;65329;52.544;4.662;2024-02-26T03:44:31;13.30;;;7.07;;
76495;SDS011;65329;52.544;4.662;2024-02-26T03:46:58;13.70;;;7.25;;
76495;SDS011;65329;52.544;4.662;2024-02-26T03:49:25;9.02;;;5.10;;
76495;SDS011;65329;52.544;4.662;2024-02-26T03:51:52;11.45;;;5.80;;
76495;SDS011;65329;52.544;4.662;2024-02-26T03:54:19;18.30;;;7.35;;
76495;SDS011;65329;52.544;4.662;2024-02-26T03:56:46;12.10;;;6.55;;
76495;SDS011;65329;52.544;4.662;2024-02-26T03:59:14;11.52;;;6.75;;
76495;SDS011;65329;52.544;4.662;2024-02-26T04:01:45;11.25;;;5.80;;
76495;SDS011;65329;52.544;4.662;2024-02-26T04:04:13;12.25;;;6.15;;
76495;SDS011;65329;52.544;4.662;2024-02-26T04:06:44;11.35;;;5.55;;
76495;SDS011;65329;52.544;4.662;2024-02-26T04:09:15;11.23;;;6.30;;
76495;SDS011;65329;52.544;4.662;2024-02-26T04:11:42;13.60;;;7.13;;
76495;SDS011;65329;52.544;4.662;2024-02-26T04:14:10;11.27;;;4.53;;
76495;SDS011;65329;52.544;4.662;2024-02-26T04:16:38;11.45;;;5.43;;
76495;SDS011;65329;52.544;4.662;2024-02-26T04:19:06;11.93;;;6.50;;
76495;SDS011;65329;52.544;4.662;2024-02-26T04:21:34;13.80;;;7.15;;
76495;SDS011;65329;52.544;4.662;2024-02-26T04:24:01;12.45;;;5.40;;
76495;SDS011;65329;52.544;4.662;2024-02-26T04:26:29;9.07;;;5.22;;
76495;SDS011;65329;52.544;4.662;2024-02-26T04:28:57;12.75;;;6.38;;
76495;SDS011;65329;52.544;4.662;2024-02-26T04:31:24;11.73;;;5.95;;
76495;SDS011;65329;52.544;4.662;2024-02-26T04:33:53;10.70;;;5.60;;
76495;SDS011;65329;52.544;4.662;2024-02-26T04:36:20;11.18;;;6.25;;
76495;SDS011;65329;52.544;4.662;2024-02-26T04:38:47;9.77;;;5.40;;
76495;SDS011;65329;52.544;4.662;2024-02-26T04:41:14;8.05;;;4.82;;
76495;SDS011;65329;52.544;4.662;2024-02-26T04:43:40;14.40;;;8.98;;
76495;SDS011;65329;52.544;4.662;2024-02-26T04:46:11;11.38;;;6.18;;
76495;SDS011;65329;52.544;4.662;2024-02-26T04:48:38;11.55;;;6.30;;
76495;SDS011;65329;52.544;4.662;2024-02-26T04:51:05;8.20;;;4.70;;
76495;SDS011;65329;52.544;4.662;2024-02-26T04:53:32;10.32;;;5.80;;
76495;SDS011;65329;52.544;4.662;2024-02-26T04:55:59;14.35;;;7.30;;
76495;SDS011;65329;52.544;4.662;2024-02-26T04:58:26;12.40;;;6.03;;
76495;SDS011;65329;52.544;4.662;2024-02-26T05:00:53;9.73;;;5.30;;
76495;SDS011;65329;52.544;4.662;2024-02-26T05:03:21;10.55;;;5.60;;
76495;SDS011;65329;52.544;4.662;2024-02-26T05:05:48;11.27;;;7.25;;
76495;SDS011;65329;52.544;4.662;2024-02-26T05:08:15;7.18;;;4.20;;
76495;SDS011;65329;52.544;4.662;2024-02-26T05:10:42;10.43;;;5.22;;
76495;SDS011;65329;52.544;4.662;2024-02-26T05:13:12;10.10;;;5.75;;
76495;SDS011;65329;52.544;4.662;2024-02-26T05:15:41;8.50;;;5.00;;
76495;SDS011;65329;52.544;4.662;2024-02-26T05:18:08;11.18;;;6.10;;
76495;SDS011;65329;52.544;4.662;2024-02-26T05:20:35;11.48;;;5.43;;
76495;SDS011;65329;52.544;4.662;2024-02-26T05:23:02;7.07;;;4.45;;
76495;SDS011;65329;52.544;4.662;2024-02-26T05:25:30;8.68;;;4.78;;
76495;SDS011;65329;52.544;4.662;2024-02-26T05:27:57;9.35;;;4.35;;
76495;SDS011;65329;52.544;4.662;2024-02-26T05:30:24;6.95;;;4.25;;
76495;SDS011;65329;52.544;4.662;2024-02-26T05:32:53;8.80;;;4.90;;
76495;SDS011;65329;52.544;4.662;2024-02-26T05:35:20;9.02;;;4.88;;
76495;SDS011;65329;52.544;4.662;2024-02-26T05:37:47;10.38;;;4.50;;
76495;SDS011;65329;52.544;4.662;2024-02-26T05:40:14;7.85;;;3.67;;
76495;SDS011;65329;52.544;4.662;2024-02-26T05:42:41;6.10;;;3.75;;
76495;SDS011;65329;52.544;4.662;2024-02-26T05:45:11;6.25;;;4.03;;
76495;SDS011;65329;52.544;4.662;2024-02-26T05:47:38;4.68;;;2.75;;
76495;SDS011;65329;52.544;4.662;2024-02-26T05:50:11;7.53;;;3.60;;
76495;SDS011;65329;52.544;4.662;2024-02-26T05:52:39;6.60;;;3.40;;
76495;SDS011;65329;52.544;4.662;2024-02-26T05:55:07;7.07;;;3.28;;
76495;SDS011;65329;52.544;4.662;2024-02-26T05:57:34;6.25;;;3.00;;
76495;SDS011;65329;52.544;4.662;2024-02-26T06:00:01;4.45;;;2.67;;
76495;SDS011;65329;52.544;4.662;2024-02-26T06:02:38;4.90;;;3.45;;
76495;SDS011;65329;52.544;4.662;2024-02-26T06:05:05;3.97;;;2.25;;
76495;SDS011;65329;52.544;4.662;2024-02-26T06:07:34;5.97;;;3.25;;
76495;SDS011;65329;52.544;4.662;2024-02-26T06:10:01;5.38;;;2.58;;
76495;SDS011;65329;52.544;4.662;2024-02-26T06:12:31;4.10;;;2.72;;
76495;SDS011;65329;52.544;4.662;2024-02-26T06:14:59;4.88;;;2.83;;
76495;SDS011;65329;52.544;4.662;2024-02-26T06:17:28;5.68;;;2.97;;
76495;SDS011;65329;52.544;4.662;2024-02-26T06:19:55;3.67;;;2.58;;
76495;SDS011;65329;52.544;4.662;2024-02-26T06:22:22;3.95;;;2.55;;
76495;SDS011;65329;52.544;4.662;2024-02-26T06:24:49;4.70;;;2.67;;
76495;SDS011;65329;52.544;4.662;2024-02-26T06:27:16;4.65;;;1.90;;
76495;SDS011;65329;52.544;4.662;2024-02-26T06:29:44;5.93;;;2.40;;
76495;SDS011;65329;52.544;4.662;2024-02-26T06:32:11;4.20;;;2.28;;
76495;SDS011;65329;52.544;4.662;2024-02-26T06:34:37;4.38;;;2.65;;
76495;SDS011;65329;52.544;4.662;2024-02-26T06:37:05;3.80;;;2.42;;
76495;SDS011;65329;52.544;4.662;2024-02-26T06:39:32;4.80;;;2.55;;
76495;SDS011;65329;52.544;4.662;2024-02-26T06:42:00;4.03;;;2.17;;
76495;SDS011;65329;52.544;4.662;2024-02-26T06:44:28;5.28;;;2.35;;
76495;SDS011;65329;52.544;4.662;2024-02-26T06:47:01;4.00;;;2.58;;
76495;SDS011;65329;52.544;4.662;2024-02-26T06:49:28;7.68;;;3.60;;
76495;SDS011;65329;52.544;4.662;2024-02-26T06:51:56;4.22;;;2.42;;
76495;SDS011;65329;52.544;4.662;2024-02-26T06:54:23;4.88;;;2.90;;
76495;SDS011;65329;52.544;4.662;2024-02-26T06:56:49;5.95;;;3.33;;
76495;SDS011;65329;52.544;4.662;2024-02-26T06:59:16;5.05;;;2.70;;
76495;SDS011;65329;52.544;4.662;2024-02-26T07:01:44;5.32;;;2.85;;
76495;SDS011;65329;52.544;4.662;2024-02-26T07:04:11;5.38;;;3.00;;
76495;SDS011;65329;52.544;4.662;2024-02-26T07:06:38;4.63;;;2.97;;
76495;SDS011;65329;52.544;4.662;2024-02-26T07:09:05;4.85;;;2.15;;
76495;SDS011;65329;52.544;4.662;2024-02-26T07:11:32;3.75;;;2.15;;
76495;SDS011;65329;52.544;4.662;2024-02-26T07:13:59;3.03;;;2.08;;
76495;SDS011;65329;52.544;4.662;2024-02-26T07:16:27;4.82;;;2.38;;
76495;SDS011;65329;52.544;4.662;2024-02-26T07:18:54;4.40;;;2.22;;
76495;SDS011;65329;52.544;4.662;2024-02-26T07:21:21;4.50;;;2.03;;
76495;SDS011;65329;52.544;4.662;2024-02-26T07:23:48;5.70;;;2.90;;
76495;SDS011;65329;52.544;4.662;2024-02-26T07:26:15;4.45;;;2.30;;
76495;SDS011;65329;52.544;4.662;2024-02-26T07:28:45;6.45;;;3.00;;
76495;SDS011;65329;52.544;4.662;2024-02-26T07:31:12;4.47;;;3.05;;
76495;SDS011;65329;52.544;4.662;2024-02-26T07:33:39;4.47;;;2.35;;
76495;SDS011;65329;52.544;4.662;2024-02-26T07:36:06;4.78;;;2.72;;
76495;SDS011;65329;52.544;4.662;2024-02-26T07:38:33;2.42;;;1.77;;
76495;SDS011;65329;52.544;4.662;2024-02-26T07:41:09;4.22;;;1.45;;
76495;SDS011;65329;52.544;4.662;2024-02-26T07:43:36;2.90;;;2.17;;
76495;SDS011;65329;52.544;4.662;2024-02-26T07:46:03;3.38;;;2.00;;
76495;SDS011;65329;52.544;4.662;2024-02-26T07:48:31;3.33;;;1.50;;
76495;SDS011;65329;52.544;4.662;2024-02-26T07:50:58;2.13;;;1.33;;
76495;SDS011;65329;52.544;4.662;2024-02-26T07:53:26;3.65;;;1.92;;
76495;SDS011;65329;52.544;4.662;2024-02-26T07:55:54;4.05;;;1.98;;
76495;SDS011;65329;52.544;4.662;2024-02-26T07:58:21;3.13;;;1.77;;
76495;SDS011;65329;52.544;4.662;2024-02-26T08:00:50;2.30;;;1.52;;
76495;SDS011;65329;52.544;4.662;2024-02-26T08:03:17;3.40;;;2.03;;
76495;SDS011;65329;52.544;4.662;2024-02-26T08:05:44;3.30;;;2.20;;
76495;SDS011;65329;52.544;4.662;2024-02-26T08:08:11;3.58;;;1.70;;
76495;SDS011;65329;52.544;4.662;2024-02-26T08:10:38;3.53;;;1.73;;
76495;SDS011;65329;52.544;4.662;2024-02-26T08:13:05;6.38;;;2.22;;
76495;SDS011;65329;52.544;4.662;2024-02-26T08:15:33;2.65;;;1.63;;
76495;SDS011;65329;52.544;4.662;2024-02-26T08:18:01;4.25;;;1.67;;
76495;SDS011;65329;52.544;4.662;2024-02-26T08:20:30;2.10;;;1.42;;
76495;SDS011;65329;52.544;4.662;2024-02-26T08:22:58;2.53;;;1.85;;
76495;SDS011;65329;52.544;4.662;2024-02-26T08:25:25;5.15;;;1.67;;
76495;SDS011;65329;52.544;4.662;2024-02-26T08:27:53;3.60;;;2.05;;
76495;SDS011;65329;52.544;4.662;2024-02-26T08:30:20;3.47;;;2.45;;
76495;SDS011;65329;52.544;4.662;2024-02-26T08:32:47;4.07;;;1.80;;
76495;SDS011;65329;52.544;4.662;2024-02-26T08:35:18;2.30;;;1.58;;
76495;SDS011;65329;52.544;4.662;2024-02-26T08:37:46;2.20;;;1.58;;
76495;SDS011;65329;52.544;4.662;2024-02-26T08:40:14;4.75;;;1.50;;
76495;SDS011;65329;52.544;4.662;2024-02-26T08:42:41;3.25;;;1.80;;
76495;SDS011;65329;52.544;4.662;2024-02-26T08:45:08;2.92;;;1.25;;
76495;SDS011;65329;52.544;4.662;2024-02-26T08:47:36;4.43;;;2.17;;
76495;SDS011;65329;52.544;4.662;2024-02-26T08:50:04;3.03;;;2.00;;
76495;SDS011;65329;52.544;4.662;2024-02-26T08:52:31;1.92;;;1.25;;
76495;SDS011;65329;52.544;4.662;2024-02-26T08:54:59;2.45;;;1.27;;
76495;SDS011;65329;52.544;4.662;2024-02-26T08:57:26;2.17;;;1.38;;
76495;SDS011;65329;52.544;4.662;2024-02-26T08:59:54;2.55;;;1.55;;
76495;SDS011;65329;52.544;4.662;2024-02-26T09:02:21;4.05;;;2.03;;
76495;SDS011;65329;52.544;4.662;2024-02-26T09:04:48;2.60;;;1.80;;
76495;SDS011;65329;52.544;4.662;2024-02-26T09:07:15;3.53;;;1.63;;
76495;SDS011;65329;52.544;4.662;2024-02-26T09:09:42;1.88;;;1.27;;
76495;SDS011;65329;52.544;4.662;2024-02-26T09:12:09;3.40;;;1.88;;
76495;SDS011;65329;52.544;4.662;2024-02-26T09:14:36;2.17;;;1.52;;
76495;SDS011;65329;52.544;4.662;2024-02-26T09:17:03;2.47;;;1.50;;
76495;SDS011;65329;52.544;4.662;2024-02-26T09:19:32;3.88;;;1.20;;
76495;SDS011;65329;52.544;4.662;2024-02-26T09:21:59;3.10;;;1.10;;
76495;SDS011;65329;52.544;4.662;2024-02-26T09:24:26;2.55;;;1.33;;
76495;SDS011;65329;52.544;4.662;2024-02-26T09:26:53;2.88;;;1.63;;
76495;SDS011;65329;52.544;4.662;2024-02-26T09:29:22;2.30;;;1.08;;
76495;SDS011;65329;52.544;4.662;2024-02-26T09:31:49;3.08;;;1.55;;
76495;SDS011;65329;52.544;4.662;2024-02-26T09:34:16;3.85;;;1.70;;
76495;SDS011;65329;52.544;4.662;2024-02-26T09:36:43;2.35;;;1.67;;
76495;SDS011;65329;52.544;4.662;2024-02-26T09:39:10;1.73;;;1.20;;
76495;SDS011;65329;52.544;4.662;2024-02-26T09:41:38;1.90;;;1.20;;
76495;SDS011;65329;52.544;4.662;2024-02-26T09:44:06;2.08;;;1.10;;
76495;SDS011;65329;52.544;4.662;2024-02-26T09:46:33;1.65;;;0.98;;
76495;SDS011;65329;52.544;4.662;2024-02-26T09:49:00;1.95;;;1.30;;
76495;SDS011;65329;52.544;4.662;2024-02-26T09:51:28;2.97;;;1.42;;
76495;SDS011;65329;52.544;4.662;2024-02-26T09:53:56;3.20;;;1.02;;
76495;SDS011;65329;52.544;4.662;2024-02-26T09:56:31;2.63;;;1.30;;
76495;SDS011;65329;52.544;4.662;2024-02-26T09:58:59;3.97;;;1.55;;
76495;SDS011;65329;52.544;4.662;2024-02-26T10:01:26;4.15;;;1.48;;
76495;SDS011;65329;52.544;4.662;2024-02-26T10:03:57;3.30;;;1.58;;
76495;SDS011;65329;52.544;4.662;2024-02-26T10:06:27;2.92;;;1.80;;
76495;SDS011;65329;52.544;4.662;2024-02-26T10:08:55;3.17;;;1.02;;
76495;SDS011;65329;52.544;4.662;2024-02-26T10:11:25;1.55;;;0.75;;
76495;SDS011;65329;52.544;4.662;2024-02-26T10:13:53;2.88;;;1.40;;
76495;SDS011;65329;52.544;4.662;2024-02-26T10:16:20;2.58;;;1.30;;
76495;SDS011;65329;52.544;4.662;2024-02-26T10:18:48;1.63;;;1.25;;
76495;SDS011;65329;52.544;4.662;2024-02-26T10:21:25;2.70;;;1.35;;
76495;SDS011;65329;52.544;4.662;2024-02-26T10:23:52;2.35;;;1.48;;
76495;SDS011;65329;52.544;4.662;2024-02-26T10:26:19;2.00;;;1.27;;
76495;SDS011;65329;52.544;4.662;2024-02-26T10:28:47;2.30;;;1.50;;
76495;SDS011;65329;52.544;4.662;2024-02-26T10:31:20;5.50;;;1.48;;
76495;SDS011;65329;52.544;4.662;2024-02-26T10:33:47;2.30;;;1.67;;
76495;SDS011;65329;52.544;4.662;2024-02-26T10:36:14;1.95;;;1.17;;
76495;SDS011;65329;52.544;4.662;2024-02-26T10:38:41;1.92;;;1.02;;
76495;SDS011;65329;52.544;4.662;2024-02-26T10:41:12;3.35;;;1.23;;
76495;SDS011;65329;52.544;4.662;2024-02-26T10:43:43;2.03;;;1.35;;
76495;SDS011;65329;52.544;4.662;2024-02-26T10:46:10;2.55;;;1.17;;
76495;SDS011;65329;52.544;4.662;2024-02-26T10:48:38;3.50;;;1.52;;
76495;SDS011;65329;52.544;4.662;2024-02-26T10:51:05;2.13;;;1.73;;
76495;SDS011;65329;52.544;4.662;2024-02-26T10:53:36;2.33;;;1.27;;
76495;SDS011;65329;52.544;4.662;2024-02-26T10:56:04;3.65;;;1.27;;
76495;SDS011;65329;52.544;4.662;2024-02-26T10:58:32;2.83;;;0.95;;
76495;SDS011;65329;52.544;4.662;2024-02-26T11:00:59;2.70;;;1.30;;
76495;SDS011;65329;52.544;4.662;2024-02-26T11:03:27;1.80;;;1.05;;
76495;SDS011;65329;52.544;4.662;2024-02-26T11:05:58;2.75;;;1.13;;
76495;SDS011;65329;52.544;4.662;2024-02-26T11:08:27;1.58;;;0.90;;
76495;SDS011;65329;52.544;4.662;2024-02-26T11:10:55;2.85;;;1.20;;
76495;SDS011;65329;52.544;4.662;2024-02-26T11:13:23;2.30;;;0.88;;
76495;SDS011;65329;52.544;4.662;2024-02-26T11:15:58;2.47;;;0.80;;
76495;SDS011;65329;52.544;4.662;2024-02-26T11:18:26;1.40;;;0.90;;
76495;SDS011;65329;52.544;4.662;2024-02-26T11:20:54;2.35;;;1.25;;
76495;SDS011;65329;52.544;4.662;2024-02-26T11:23:26;2.45;;;0.82;;
76495;SDS011;65329;52.544;4.662;2024-02-26T11:25:54;4.40;;;1.00;;
76495;SDS011;65329;52.544;4.662;2024-02-26T11:28:24;2.58;;;0.68;;
76495;SDS011;65329;52.544;4.662;2024-02-26T11:30:53;1.80;;;1.52;;
76495;SDS011;65329;52.544;4.662;2024-02-26T11:33:21;2.08;;;1.20;;
76495;SDS011;65329;52.544;4.662;2024-02-26T11:35:49;1.92;;;0.93;;
76495;SDS011;65329;52.544;4.662;2024-02-26T11:38:20;1.25;;;0.85;;
76495;SDS011;65329;52.544;4.662;2024-02-26T11:40:48;2.17;;;1.05;;
76495;SDS011;65329;52.544;4.662;2024-02-26T11:43:16;2.95;;;0.90;;
76495;SDS011;65329;52.544;4.662;2024-02-26T11:50:48;3.00;;;1.20;;
76495;SDS011;65329;52.544;4.662;2024-02-26T11:53:19;2.47;;;0.95;;
76495;SDS011;65329;52.544;4.662;2024-02-26T11:59:03;1.75;;;0.95;;
76495;SDS011;65329;52.544;4.662;2024-02-26T12:01:51;1.58;;;1.00;;
76495;SDS011;65329;52.544;4.662;2024-02-26T12:04:20;1.77;;;0.95;;
76495;SDS011;65329;52.544;4.662;2024-02-26T12:06:56;1.77;;;1.20;;
76495;SDS011;65329;52.544;4.662;2024-02-26T12:09:30;1.90;;;1.23;;
76495;SDS011;65329;52.544;4.662;2024-02-26T12:11:57;2.28;;;0.77;;
76495;SDS011;65329;52.544;4.662;2024-02-26T12:14:25;2.20;;;0.80;;
76495;SDS011;65329;52.544;4.662;2024-02-26T12:16:53;1.20;;;0.82;;
76495;SDS011;65329;52.544;4.662;2024-02-26T12:19:22;2.20;;;0.90;;
76495;SDS011;65329;52.544;4.662;2024-02-26T12:21:53;1.30;;;1.05;;
76495;SDS011;65329;52.544;4.662;2024-02-26T12:24:21;2.38;;;0.85;;
76495;SDS011;65329;52.544;4.662;2024-02-26T12:26:48;3.95;;;0.80;;
76495;SDS011;65329;52.544;4.662;2024-02-26T12:29:15;1.83;;;0.90;;
76495;SDS011;65329;52.544;4.662;2024-02-26T12:31:42;2.30;;;0.77;;
76495;SDS011;65329;52.544;4.662;2024-02-26T12:34:10;1.48;;;1.17;;
76495;SDS011;65329;52.544;4.662;2024-02-26T12:36:37;2.25;;;1.10;;
76495;SDS011;65329;52.544;4.662;2024-02-26T12:39:05;3.13;;;1.38;;
76495;SDS011;65329;52.544;4.662;2024-02-26T12:41:33;1.88;;;1.00;;
76495;SDS011;65329;52.544;4.662;2024-02-26T12:44:01;1.58;;;1.15;;
76495;SDS011;65329;52.544;4.662;2024-02-26T12:46:29;2.25;;;1.27;;
76495;SDS011;65329;52.544;4.662;2024-02-26T12:48:58;4.45;;;1.20;;
76495;SDS011;65329;52.544;4.662;2024-02-26T12:51:26;2.28;;;1.25;;
76495;SDS011;65329;52.544;4.662;2024-02-26T12:53:54;3.72;;;1.30;;
76495;SDS011;65329;52.544;4.662;2024-02-26T12:56:22;1.40;;;1.25;;
76495;SDS011;65329;52.544;4.662;2024-02-26T12:58:50;3.67;;;1.40;;
76495;SDS011;65329;52.544;4.662;2024-02-26T13:01:21;3.53;;;1.25;;
76495;SDS011;65329;52.544;4.662;2024-02-26T13:03:51;3.55;;;1.38;;
76495;SDS011;65329;52.544;4.662;2024-02-26T13:06:19;5.95;;;2.05;;
76495;SDS011;65329;52.544;4.662;2024-02-26T13:08:48;4.88;;;1.50;;
76495;SDS011;65329;52.544;4.662;2024-02-26T13:11:16;3.47;;;1.80;;
76495;SDS011;65329;52.544;4.662;2024-02-26T13:13:47;5.78;;;2.33;;
76495;SDS011;65329;52.544;4.662;2024-02-26T13:16:14;4.07;;;1.52;;
76495;SDS011;65329;52.544;4.662;2024-02-26T13:18:42;3.90;;;1.92;;
76495;SDS011;65329;52.544;4.662;2024-02-26T13:21:10;4.13;;;1.70;;
76495;SDS011;65329;52.544;4.662;2024-02-26T13:23:48;4.03;;;1.77;;
76495;SDS011;65329;52.544;4.662;2024-02-26T13:26:17;3.10;;;1.80;;
76495;SDS011;65329;52.544;4.662;2024-02-26T13:28:44;1.98;;;1.38;;
76495;SDS011;65329;52.544;4.662;2024-02-26T13:31:11;4.63;;;1.40;;
76495;SDS011;65329;52.544;4.662;2024-02-26T13:33:38;2.60;;;1.30;;
76495;SDS011;65329;52.544;4.662;2024-02-26T13:36:05;3.75;;;1.45;;
76495;SDS011;65329;52.544;4.662;2024-02-26T13:38:33;1.70;;;1.10;;
76495;SDS011;65329;52.544;4.662;2024-02-26T13:41:00;3.83;;;1.73;;
76495;SDS011;65329;52.544;4.662;2024-02-26T13:43:27;2.65;;;1.58;;
76495;SDS011;65329;52.544;4.662;2024-02-26T13:45:54;9.43;;;2.20;;
76495;SDS011;65329;52.544;4.662;2024-02-26T13:48:21;4.32;;;1.15;;
76495;SDS011;65329;52.544;4.662;2024-02-26T13:50:49;2.50;;;1.40;;
76495;SDS011;65329;52.544;4.662;2024-02-26T13:53:16;6.00;;;2.15;;
76495;SDS011;65329;52.544;4.662;2024-02-26T13:55:43;3.15;;;1.33;;
76495;SDS011;65329;52.544;4.662;2024-02-26T13:58:13;3.10;;;1.20;;
76495;SDS011;65329;52.544;4.662;2024-02-26T14:00:41;1.88;;;1.30;;
76495;SDS011;65329;52.544;4.662;2024-02-26T14:03:09;1.95;;;1.30;;
76495;SDS011;65329;52.544;4.662;2024-02-26T14:05:36;2.65;;;0.85;;
76495;SDS011;65329;52.544;4.662;2024-02-26T14:08:04;2.83;;;0.98;;
76495;SDS011;65329;52.544;4.662;2024-02-26T14:10:32;4.38;;;2.25;;
76495;SDS011;65329;52.544;4.662;2024-02-26T14:12:59;1.50;;;1.00;;
76495;SDS011;65329;52.544;4.662;2024-02-26T14:15:27;4.43;;;1.90;;
76495;SDS011;65329;52.544;4.662;2024-02-26T14:17:55;4.10;;;1.58;;
76495;SDS011;65329;52.544;4.662;2024-02-26T14:20:26;4.07;;;1.65;;
76495;SDS011;65329;52.544;4.662;2024-02-26T14:22:53;4.43;;;1.60;;
76495;SDS011;65329;52.544;4.662;2024-02-26T14:25:20;3.53;;;1.02;;
76495;SDS011;65329;52.544;4.662;2024-02-26T14:27:48;2.88;;;1.17;;
76495;SDS011;65329;52.544;4.662;2024-02-26T14:30:15;1.70;;;0.82;;
76495;SDS011;65329;52.544;4.662;2024-02-26T14:32:43;4.20;;;0.93;;
76495;SDS011;65329;52.544;4.662;2024-02-26T14:35:10;4.80;;;1.65;;
76495;SDS011;65329;52.544;4.662;2024-02-26T14:37:43;4.75;;;1.15;;
76495;SDS011;65329;52.544;4.662;2024-02-26T14:40:15;3.45;;;1.05;;
76495;SDS011;65329;52.544;4.662;2024-02-26T14:42:44;3.35;;;1.45;;
76495;SDS011;65329;52.544;4.662;2024-02-26T14:45:11;2.42;;;0.68;;
76495;SDS011;65329;52.544;4.662;2024-02-26T14:47:39;2.05;;;0.95;;
76495;SDS011;65329;52.544;4.662;2024-02-26T14:50:06;2.33;;;1.08;;
76495;SDS011;65329;52.544;4.662;2024-02-26T14:52:34;4.78;;;1.20;;
76495;SDS011;65329;52.544;4.662;2024-02-26T14:55:00;2.67;;;1.23;;